createdAt,value
2022-12-26T00:00:01.264Z,22.54
2022-12-26T00:02:31.675Z,22.50
2022-12-26T00:05:02.405Z,22.47
2022-12-26T00:07:32.272Z,22.43
2022-12-26T00:10:03.063Z,22.41
2022-12-26T00:12:33.109Z,22.40
2022-12-26T00:15:03.788Z,22.41
2022-12-26T00:17:33.530Z,22.40
2022-12-26T00:20:03.479Z,22.39
2022-12-26T00:22:33.357Z,22.36
2022-12-26T00:25:05.253Z,22.37
2022-12-26T00:27:35.687Z,22.36
2022-12-26T00:30:06.527Z,22.30
2022-12-26T00:32:36.699Z,22.25
2022-12-26T00:35:06.796Z,22.18
2022-12-26T00:37:36.829Z,22.23
2022-12-26T00:40:09.121Z,22.18
2022-12-26T00:42:41.243Z,22.24
2022-12-26T00:45:11.628Z,22.27
2022-12-26T00:47:41.400Z,22.30
2022-12-26T00:50:15.618Z,22.30
2022-12-26T00:52:46.786Z,22.25
2022-12-26T00:55:17.496Z,22.30
2022-12-26T00:57:47.880Z,22.30
2022-12-26T01:00:18.020Z,22.39
2022-12-26T01:02:49.038Z,22.39
2022-12-26T01:05:27.336Z,22.43
2022-12-26T01:08:20.281Z,22.41
2022-12-26T01:10:49.449Z,22.45
2022-12-26T01:13:20.795Z,22.45
2022-12-26T01:15:56.202Z,22.41
2022-12-26T01:18:28.417Z,22.41
2022-12-26T01:21:10.318Z,22.39
2022-12-26T01:23:40.726Z,22.41
2022-12-26T01:26:17.097Z,22.45
2022-12-26T01:28:53.552Z,22.50
2022-12-26T01:31:25.141Z,22.52
2022-12-26T01:33:55.666Z,22.52
2022-12-26T01:36:26.079Z,22.57
2022-12-26T01:38:57.688Z,22.61
2022-12-26T01:41:29.359Z,22.57
2022-12-26T01:44:07.179Z,22.54
2022-12-26T01:46:42.232Z,22.44
2022-12-26T01:49:37.192Z,22.39
2022-12-26T01:52:13.784Z,22.39
2022-12-26T01:54:49.204Z,22.44
2022-12-26T01:57:20.679Z,22.44
2022-12-26T01:59:53.132Z,22.43
2022-12-26T02:02:23.721Z,22.41
2022-12-26T02:05:12.716Z,22.41
2022-12-26T02:07:47.595Z,22.40
2022-12-26T02:10:24.526Z,22.41
2022-12-26T02:12:55.101Z,22.45
2022-12-26T02:15:25.855Z,22.45
2022-12-26T02:17:56.278Z,22.47
2022-12-26T02:20:32.084Z,22.51
2022-12-26T02:23:44.290Z,22.51
2022-12-26T02:26:23.553Z,22.51
2022-12-26T02:29:20.596Z,22.45
2022-12-26T02:32:13.953Z,22.43
2022-12-26T02:35:22.446Z,22.41
2022-12-26T02:38:07.657Z,22.43
2022-12-26T02:40:53.820Z,22.44
2022-12-26T02:43:41.394Z,22.40
2022-12-26T02:46:29.906Z,22.36
2022-12-26T02:49:12.606Z,22.34
2022-12-26T02:52:33.512Z,22.30
2022-12-26T02:55:29.993Z,22.29
2022-12-26T02:58:27.915Z,22.29
2022-12-26T03:01:23.118Z,22.24
2022-12-26T03:04:15.026Z,22.27
2022-12-26T03:07:08.623Z,22.21
2022-12-26T03:09:59.530Z,22.13
2022-12-26T03:13:12.899Z,22.14
2022-12-26T03:16:30.403Z,22.12
2022-12-26T03:19:08.606Z,22.13
2022-12-26T03:21:44.960Z,22.12
2022-12-26T03:24:18.711Z,22.12
2022-12-26T03:26:55.421Z,22.16
2022-12-26T03:29:44.482Z,22.21
2022-12-26T03:32:15.487Z,22.33
2022-12-26T03:34:46.449Z,22.36
2022-12-26T03:37:49.730Z,22.37
2022-12-26T03:40:56.917Z,22.39
2022-12-26T03:44:14.149Z,22.39
2022-12-26T03:47:10.928Z,22.43
2022-12-26T03:50:07.212Z,22.50
2022-12-26T03:53:02.548Z,22.54
2022-12-26T03:56:04.267Z,22.61
2022-12-26T03:59:13.262Z,22.61
2022-12-26T04:02:05.817Z,22.58
2022-12-26T04:04:57.496Z,22.58
2022-12-26T04:07:56.510Z,22.67
2022-12-26T04:10:49.061Z,22.65
2022-12-26T04:13:43.810Z,22.64
2022-12-26T04:16:53.933Z,22.68
2022-12-26T04:19:30.292Z,22.72
2022-12-26T04:22:45.732Z,22.73
2022-12-26T04:25:48.654Z,22.68
2022-12-26T04:28:42.036Z,22.68
2022-12-26T04:31:47.960Z,22.61
2022-12-26T04:34:46.318Z,22.61
2022-12-26T04:37:42.689Z,22.64
2022-12-26T04:40:38.440Z,22.62
2022-12-26T04:43:48.377Z,22.67
2022-12-26T04:46:20.944Z,22.73
2022-12-26T04:49:13.648Z,22.76
2022-12-26T04:51:44.209Z,22.81
2022-12-26T04:54:13.979Z,22.81
2022-12-26T04:56:44.343Z,22.85
2022-12-26T04:59:17.376Z,22.85
2022-12-26T05:02:23.416Z,22.87
2022-12-26T05:05:11.470Z,22.81
2022-12-26T05:07:59.953Z,22.75
2022-12-26T05:10:31.553Z,22.68
2022-12-26T05:13:02.181Z,22.61
2022-12-26T05:15:51.761Z,22.60
2022-12-26T05:18:40.143Z,22.60
2022-12-26T05:21:34.785Z,22.58
2022-12-26T05:24:24.182Z,22.54
2022-12-26T05:27:12.500Z,22.51
2022-12-26T05:29:43.556Z,22.51
2022-12-26T05:32:14.458Z,22.48
2022-12-26T05:34:45.053Z,22.50
2022-12-26T05:37:14.793Z,22.47
2022-12-26T05:39:45.530Z,22.48
2022-12-26T05:42:16.818Z,22.45
2022-12-26T05:44:48.876Z,22.43
2022-12-26T05:47:19.219Z,22.40
2022-12-26T05:49:48.912Z,22.36
2022-12-26T05:52:19.825Z,22.30
2022-12-26T05:54:50.553Z,22.25
2022-12-26T05:57:20.998Z,22.14
2022-12-26T05:59:50.741Z,22.00
2022-12-26T06:02:21.368Z,21.90
2022-12-26T06:04:51.873Z,21.89
2022-12-26T06:07:22.312Z,21.86
2022-12-26T06:09:52.930Z,21.81
2022-12-26T06:12:23.404Z,21.81
2022-12-26T06:14:53.178Z,21.75
2022-12-26T06:17:23.779Z,21.69
2022-12-26T06:19:54.008Z,21.67
2022-12-26T06:22:24.200Z,21.67
2022-12-26T06:24:53.885Z,21.71
2022-12-26T06:27:24.162Z,21.72
2022-12-26T06:29:54.496Z,21.72
2022-12-26T06:32:26.246Z,21.71
2022-12-26T06:34:56.800Z,21.67
2022-12-26T06:37:26.596Z,21.69
2022-12-26T06:39:56.624Z,21.67
2022-12-26T06:42:27.383Z,21.73
2022-12-26T06:44:58.837Z,21.76
2022-12-26T06:47:28.542Z,21.73
2022-12-26T06:49:59.006Z,21.73
2022-12-26T06:52:29.537Z,21.75
2022-12-26T06:55:00.504Z,21.75
2022-12-26T06:57:30.426Z,21.72
2022-12-26T07:00:01.151Z,21.73
2022-12-26T07:02:30.953Z,21.76
2022-12-26T07:05:01.168Z,21.76
2022-12-26T07:07:31.324Z,21.78
2022-12-26T07:10:03.265Z,21.76
2022-12-26T07:12:36.240Z,21.82
2022-12-26T07:15:06.735Z,21.88
2022-12-26T07:17:36.743Z,21.90
2022-12-26T07:20:09.273Z,21.93
2022-12-26T07:22:39.466Z,21.97
2022-12-26T07:25:09.660Z,21.99
2022-12-26T07:27:40.809Z,21.99
2022-12-26T07:30:12.075Z,21.99
2022-12-26T07:32:43.460Z,21.96
2022-12-26T07:35:14.133Z,21.94
2022-12-26T07:37:44.540Z,21.92
2022-12-26T07:40:15.319Z,21.92
2022-12-26T07:42:46.847Z,21.88
2022-12-26T07:45:16.879Z,21.86
2022-12-26T07:47:46.620Z,21.86
2022-12-26T07:50:17.355Z,21.88
2022-12-26T07:52:47.991Z,21.86
2022-12-26T07:55:19.171Z,21.85
2022-12-26T07:57:53.299Z,21.86
2022-12-26T08:00:23.586Z,21.85
2022-12-26T08:02:54.619Z,21.83
2022-12-26T08:05:25.936Z,21.85
2022-12-26T08:07:55.841Z,21.86
2022-12-26T08:10:25.936Z,21.83
2022-12-26T08:12:56.092Z,21.82
2022-12-26T08:15:26.237Z,21.85
2022-12-26T08:17:56.766Z,21.82
2022-12-26T08:20:26.800Z,21.78
2022-12-26T08:25:29.756Z,21.79
2022-12-26T08:28:01.380Z,21.76
2022-12-26T08:30:31.632Z,21.79
2022-12-26T08:33:01.484Z,21.79
2022-12-26T08:35:31.883Z,21.81
2022-12-26T08:38:02.893Z,21.81
2022-12-26T08:40:43.074Z,21.78
2022-12-26T08:43:38.684Z,21.83
2022-12-26T08:46:09.243Z,21.86
2022-12-26T08:48:41.429Z,21.92
2022-12-26T08:51:17.626Z,21.94
2022-12-26T08:53:50.815Z,21.97
2022-12-26T08:56:27.065Z,22.02
2022-12-26T08:59:01.342Z,22.06
2022-12-26T09:01:33.193Z,22.07
2022-12-26T09:04:06.049Z,22.16
2022-12-26T09:06:38.676Z,22.16
2022-12-26T09:09:12.593Z,22.14
2022-12-26T09:11:44.586Z,22.20
2022-12-26T09:14:16.262Z,22.27
2022-12-26T09:16:50.930Z,22.30
2022-12-26T09:19:22.412Z,22.39
2022-12-26T09:22:15.899Z,22.50
2022-12-26T09:24:46.943Z,22.48
2022-12-26T09:27:17.273Z,22.54
2022-12-26T09:29:46.994Z,22.57
2022-12-26T09:32:18.537Z,22.55
2022-12-26T09:34:51.092Z,22.61
2022-12-26T09:37:22.141Z,22.73
2022-12-26T09:39:52.460Z,22.73
2022-12-26T09:42:40.745Z,22.81
2022-12-26T09:45:18.163Z,22.76
2022-12-26T09:48:04.505Z,22.81
2022-12-26T09:50:43.207Z,22.79
2022-12-26T09:53:38.749Z,22.76
2022-12-26T09:56:23.649Z,22.79
2022-12-26T09:59:12.797Z,22.91
2022-12-26T10:01:43.354Z,22.91
2022-12-26T10:04:29.933Z,23.03
2022-12-26T10:07:06.922Z,23.13
2022-12-26T10:10:13.328Z,23.30
2022-12-26T10:13:00.057Z,23.39
2022-12-26T10:15:48.360Z,23.37
2022-12-26T10:18:40.322Z,23.42
2022-12-26T10:21:46.930Z,23.77
2022-12-26T10:24:22.038Z,23.98
2022-12-26T10:27:04.618Z,24.30
2022-12-26T10:29:44.741Z,24.56
2022-12-26T10:35:34.506Z,24.07
2022-12-26T10:38:13.090Z,23.91
2022-12-26T10:40:49.010Z,23.81
2022-12-26T10:43:34.566Z,23.70
2022-12-26T10:46:43.430Z,23.68
2022-12-26T10:49:15.370Z,23.77
2022-12-26T10:51:46.436Z,23.81
2022-12-26T10:54:19.766Z,23.63
2022-12-26T10:56:53.199Z,23.51
2022-12-26T10:59:28.540Z,23.34
2022-12-26T11:02:25.929Z,23.40
2022-12-26T11:05:57.032Z,23.36
2022-12-26T11:08:39.157Z,23.31
2022-12-26T11:11:26.440Z,23.42
2022-12-26T11:14:04.317Z,23.53
2022-12-26T11:16:38.866Z,23.61
2022-12-26T11:19:27.519Z,23.61
2022-12-26T11:22:29.722Z,23.84
2022-12-26T11:25:13.728Z,24.00
2022-12-26T11:27:49.701Z,24.21
2022-12-26T11:30:23.792Z,24.48
2022-12-26T11:33:39.396Z,24.72
2022-12-26T11:36:18.889Z,24.70
2022-12-26T11:38:51.916Z,24.94
2022-12-26T11:41:33.190Z,25.18
2022-12-26T11:44:06.797Z,25.11
2022-12-26T11:46:59.630Z,25.46
2022-12-26T11:49:52.166Z,25.46
2022-12-26T11:52:42.515Z,25.51
2022-12-26T11:55:33.847Z,25.65
2022-12-26T11:58:08.801Z,25.99
2022-12-26T12:00:44.983Z,25.75
2022-12-26T12:03:19.712Z,25.90
2022-12-26T12:06:03.941Z,26.09
2022-12-26T12:08:40.522Z,25.85
2022-12-26T12:11:28.504Z,25.78
2022-12-26T12:14:16.811Z,25.82
2022-12-26T12:16:58.939Z,25.46
2022-12-26T12:19:53.751Z,25.18
2022-12-26T12:23:01.105Z,24.84
2022-12-26T12:25:53.319Z,24.63
2022-12-26T12:29:02.412Z,24.91
2022-12-26T12:32:09.125Z,25.33
2022-12-26T12:35:04.912Z,25.34
2022-12-26T12:37:54.761Z,25.55
2022-12-26T12:40:39.707Z,25.78
2022-12-26T12:43:50.709Z,25.99
2022-12-26T12:46:46.129Z,25.75
2022-12-26T12:49:30.937Z,25.24
2022-12-26T12:52:39.039Z,25.14
2022-12-26T12:55:25.886Z,25.03
2022-12-26T12:58:04.287Z,25.08
2022-12-26T13:01:09.592Z,25.38
2022-12-26T13:03:47.474Z,25.31
2022-12-26T13:06:41.476Z,25.21
2022-12-26T13:09:26.624Z,25.07
2022-12-26T13:12:22.512Z,24.88
2022-12-26T13:15:24.002Z,24.98
2022-12-26T13:18:07.081Z,25.17
2022-12-26T13:21:00.406Z,25.34
2022-12-26T13:24:02.538Z,25.31
2022-12-26T13:27:05.364Z,25.02
2022-12-26T13:29:41.636Z,24.87
2022-12-26T13:32:33.202Z,24.51
2022-12-26T13:35:05.469Z,24.25
2022-12-26T13:37:41.559Z,24.07
2022-12-26T13:40:15.963Z,24.12
2022-12-26T13:43:40.729Z,24.19
2022-12-26T13:46:47.418Z,24.32
2022-12-26T13:49:38.274Z,24.46
2022-12-26T13:52:21.230Z,24.60
2022-12-26T13:54:52.597Z,24.55
2022-12-26T13:57:48.576Z,24.36
2022-12-26T14:00:23.894Z,24.17
2022-12-26T14:03:20.260Z,24.19
2022-12-26T14:06:00.140Z,24.14
2022-12-26T14:09:05.546Z,24.02
2022-12-26T14:11:58.991Z,23.89
2022-12-26T14:14:53.947Z,24.07
2022-12-26T14:18:06.290Z,24.38
2022-12-26T14:20:39.804Z,24.39
2022-12-26T14:23:12.977Z,24.48
2022-12-26T14:26:03.316Z,24.65
2022-12-26T14:28:58.751Z,24.72
2022-12-26T14:31:36.954Z,24.67
2022-12-26T14:34:36.243Z,24.87
2022-12-26T14:37:33.949Z,24.97
2022-12-26T14:40:31.519Z,24.90
2022-12-26T14:43:23.143Z,24.79
2022-12-26T14:45:55.930Z,24.87
2022-12-26T14:48:29.596Z,24.77
2022-12-26T14:54:38.564Z,24.70
2022-12-26T14:57:48.380Z,24.72
2022-12-26T15:00:24.728Z,24.62
2022-12-26T15:03:17.645Z,24.91
2022-12-26T15:05:50.002Z,24.70
2022-12-26T15:08:42.571Z,24.86
2022-12-26T15:11:33.646Z,24.79
2022-12-26T15:14:09.095Z,24.77
2022-12-26T15:17:12.673Z,24.72
2022-12-26T15:20:02.229Z,24.79
2022-12-26T15:22:50.521Z,24.83
2022-12-26T15:25:35.869Z,24.97
2022-12-26T15:28:39.071Z,25.06
2022-12-26T15:31:21.062Z,24.98
2022-12-26T15:34:09.489Z,25.14
2022-12-26T15:36:57.788Z,24.97
2022-12-26T15:39:44.171Z,24.35
2022-12-26T15:42:18.467Z,23.45
2022-12-26T15:45:28.315Z,22.81
2022-12-26T15:48:34.748Z,22.37
2022-12-26T15:51:25.107Z,22.27
2022-12-26T15:54:25.242Z,22.30
2022-12-26T15:57:04.721Z,22.43
2022-12-26T16:00:12.040Z,22.48
2022-12-26T16:03:09.272Z,22.47
2022-12-26T16:05:51.946Z,22.45
2022-12-26T16:08:43.657Z,22.58
2022-12-26T16:11:23.009Z,22.67
2022-12-26T16:13:56.476Z,22.73
2022-12-26T16:16:39.358Z,22.94
2022-12-26T16:19:23.113Z,23.19
2022-12-26T16:22:20.316Z,23.37
2022-12-26T16:24:54.863Z,23.27
2022-12-26T16:27:27.038Z,23.39
2022-12-26T16:30:11.973Z,23.63
2022-12-26T16:32:45.481Z,23.98
2022-12-26T16:35:28.038Z,24.29
2022-12-26T16:38:01.610Z,24.38
2022-12-26T16:40:33.584Z,24.55
2022-12-26T16:43:06.135Z,24.66
2022-12-26T16:45:39.010Z,24.67
2022-12-26T16:48:11.042Z,24.52
2022-12-26T16:50:53.607Z,24.49
2022-12-26T16:53:45.337Z,24.45
2022-12-26T16:56:33.005Z,24.52
2022-12-26T16:59:22.332Z,24.48
2022-12-26T17:01:56.846Z,24.45
2022-12-26T17:04:30.900Z,24.46
2022-12-26T17:07:07.884Z,24.56
2022-12-26T17:09:47.750Z,24.49
2022-12-26T17:12:26.985Z,24.28
2022-12-26T17:15:00.450Z,24.19
2022-12-26T17:17:36.693Z,24.21
2022-12-26T17:20:25.746Z,24.04
2022-12-26T17:22:58.548Z,24.02
2022-12-26T17:25:32.711Z,24.11
2022-12-26T17:28:13.366Z,24.12
2022-12-26T17:30:48.373Z,24.05
2022-12-26T17:33:28.923Z,24.07
2022-12-26T17:39:22.675Z,24.17
2022-12-26T17:42:01.669Z,24.08
2022-12-26T17:44:43.061Z,23.93
2022-12-26T17:47:28.604Z,23.59
2022-12-26T17:49:59.225Z,23.46
2022-12-26T17:52:30.919Z,23.30
2022-12-26T17:55:15.670Z,23.12
2022-12-26T17:57:46.025Z,22.98
2022-12-26T18:00:24.739Z,22.76
2022-12-26T18:02:55.501Z,22.50
2022-12-26T18:05:25.870Z,22.31
2022-12-26T18:07:57.980Z,22.06
2022-12-26T18:10:31.835Z,21.75
2022-12-26T18:13:03.313Z,21.54
2022-12-26T18:15:34.547Z,21.42
2022-12-26T18:18:06.031Z,21.46
2022-12-26T18:20:35.983Z,21.49
2022-12-26T18:23:11.755Z,21.58
2022-12-26T18:25:42.637Z,21.69
2022-12-26T18:28:16.099Z,21.88
2022-12-26T18:30:46.649Z,22.33
2022-12-26T18:33:16.386Z,22.62
2022-12-26T18:35:49.006Z,22.72
2022-12-26T18:38:23.674Z,22.85
2022-12-26T18:40:54.547Z,22.91
2022-12-26T18:43:24.353Z,22.78
2022-12-26T18:45:55.522Z,22.75
2022-12-26T18:48:26.359Z,22.72
2022-12-26T18:50:56.739Z,22.69
2022-12-26T18:53:27.458Z,22.72
2022-12-26T18:55:58.660Z,22.85
2022-12-26T18:58:29.573Z,23.03
2022-12-26T19:01:01.628Z,23.16
2022-12-26T19:03:32.230Z,23.12
2022-12-26T19:06:03.000Z,23.20
2022-12-26T19:08:34.031Z,23.24
2022-12-26T19:11:04.838Z,23.27
2022-12-26T19:13:34.645Z,23.18
2022-12-26T19:16:07.262Z,23.09
2022-12-26T19:18:38.309Z,23.13
2022-12-26T19:21:16.247Z,23.06
2022-12-26T19:23:49.228Z,22.94
2022-12-26T19:26:21.437Z,22.81
2022-12-26T19:28:56.965Z,22.72
2022-12-26T19:31:26.806Z,22.81
2022-12-26T19:33:59.986Z,22.71
2022-12-26T19:36:31.588Z,22.85
2022-12-26T19:39:02.324Z,22.88
2022-12-26T19:41:32.603Z,22.79
2022-12-26T19:44:03.329Z,22.64
2022-12-26T19:46:34.704Z,22.54
2022-12-26T19:49:05.106Z,22.37
2022-12-26T19:51:35.955Z,22.24
2022-12-26T19:54:08.102Z,22.23
2022-12-26T19:56:38.585Z,22.24
2022-12-26T19:59:08.864Z,22.18
2022-12-26T20:01:41.275Z,22.18
2022-12-26T20:04:11.443Z,22.13
2022-12-26T20:06:42.243Z,22.12
2022-12-26T20:09:15.062Z,22.04
2022-12-26T20:11:56.106Z,21.96
2022-12-26T20:14:28.511Z,21.88
2022-12-26T20:17:08.012Z,21.78
2022-12-26T20:19:39.675Z,21.73
2022-12-26T20:22:09.565Z,21.71
2022-12-26T20:24:39.745Z,21.67
2022-12-26T20:27:10.449Z,21.67
2022-12-26T20:29:41.733Z,21.62
2022-12-26T20:32:12.991Z,21.66
2022-12-26T20:34:43.136Z,21.62
2022-12-26T20:37:14.274Z,21.62
2022-12-26T20:39:45.575Z,21.59
2022-12-26T20:42:17.460Z,21.62
2022-12-26T20:44:47.753Z,21.55
2022-12-26T20:47:18.974Z,21.48
2022-12-26T20:49:49.760Z,21.51
2022-12-26T20:52:20.529Z,21.48
2022-12-26T20:54:50.769Z,21.48
2022-12-26T20:57:20.943Z,21.52
2022-12-26T20:59:51.730Z,21.52
2022-12-26T21:02:21.900Z,21.52
2022-12-26T21:04:52.593Z,21.52
2022-12-26T21:07:22.343Z,21.54
2022-12-26T21:09:53.813Z,21.46
2022-12-26T21:12:24.583Z,21.44
2022-12-26T21:14:54.525Z,21.39
2022-12-26T21:17:25.042Z,21.38
2022-12-26T21:19:57.072Z,21.35
2022-12-26T21:22:28.102Z,21.34
2022-12-26T21:24:58.987Z,21.27
2022-12-26T21:27:29.034Z,21.23
2022-12-26T21:29:59.298Z,21.20
2022-12-26T21:32:30.181Z,21.24
2022-12-26T21:35:00.254Z,21.17
2022-12-26T21:37:48.168Z,21.14
2022-12-26T21:40:22.005Z,21.14
2022-12-26T21:42:52.781Z,21.12
2022-12-26T21:45:22.571Z,21.10
2022-12-26T21:47:52.913Z,21.04
2022-12-26T21:50:23.375Z,20.98
2022-12-26T21:52:53.888Z,21.01
2022-12-26T21:55:30.506Z,20.97
2022-12-26T21:58:02.737Z,20.96
2022-12-26T22:00:36.422Z,20.93
2022-12-26T22:03:26.595Z,20.91
2022-12-26T22:05:57.800Z,20.93
2022-12-26T22:08:28.246Z,20.90
2022-12-26T22:11:16.705Z,20.88
2022-12-26T22:13:51.460Z,20.87
2022-12-26T22:16:21.553Z,20.86
2022-12-26T22:18:51.551Z,20.81
2022-12-26T22:21:24.290Z,20.84
2022-12-26T22:23:56.002Z,20.86
2022-12-26T22:26:27.225Z,20.83
2022-12-26T22:28:59.529Z,20.83
2022-12-26T22:31:35.372Z,20.80
2022-12-26T22:34:17.441Z,20.74
2022-12-26T22:36:47.761Z,20.72
2022-12-26T22:39:18.541Z,20.69
2022-12-26T22:41:49.449Z,20.66
2022-12-26T22:44:21.351Z,20.63
2022-12-26T22:46:53.002Z,20.70
2022-12-26T22:49:23.352Z,20.79
2022-12-26T22:51:54.750Z,20.84
2022-12-26T22:54:25.396Z,20.79
2022-12-26T22:56:55.133Z,20.77
2022-12-26T23:00:08.313Z,20.69
2022-12-26T23:02:34.544Z,20.70
2022-12-26T23:05:06.467Z,20.67
2022-12-26T23:07:37.911Z,20.72
2022-12-26T23:10:10.390Z,20.72
2022-12-26T23:12:47.088Z,20.72
2022-12-26T23:15:19.991Z,20.62
2022-12-26T23:18:39.904Z,20.60
2022-12-26T23:21:37.175Z,20.70
2022-12-26T23:24:13.007Z,20.66
2022-12-26T23:26:48.558Z,20.65
2022-12-26T23:29:40.194Z,20.66
2022-12-26T23:32:12.948Z,20.62
2022-12-26T23:34:43.099Z,20.59
2022-12-26T23:37:14.011Z,20.52
2022-12-26T23:39:44.433Z,20.52
2022-12-26T23:42:14.575Z,20.52
2022-12-26T23:44:45.271Z,20.42
2022-12-26T23:47:16.703Z,20.35
2022-12-26T23:49:47.132Z,20.26
2022-12-26T23:52:17.034Z,20.25
2022-12-26T23:54:47.327Z,20.21
2022-12-26T23:57:17.080Z,20.14
2022-12-26T23:59:48.918Z,20.05
